Medfield, Massachusetts
Current Conditions -  °F | °C
As of 11:53 AM on Tuesday 27 Jan 2015 (Local Time) from KOWD Reporting Station
Moderate Fog Moderate Fog  
Wind Chill:   Ceiling: 600
Heat Index: 16°   Visibility: 0.25mi
Dew Point: 12°   Wind: 15mph
Humidity: 84%   Direction: 350°N
Pressure: 29.5"   Gusts: 25mph
Location:  42.19°N, 71.3°W
Report Text: KOWD 271653Z AUTO 35013G22KT 1/4SM FZFG VV006 M09/M11 A2950 RMK AO2 PK WND 36027/1555 SLP990 T10891111 PWINO FZRANO $
Loading
Personal Weather Stations






























Interactive Weather Map New forecast layout! Learn more

10-Day Weather Forecast

Advertisements
Track Severe Weather on mobile